createdAt,value
2023-01-27T00:00:51.434Z,2.90
2023-01-27T00:05:54.503Z,2.93
2023-01-27T00:11:12.981Z,3.73
2023-01-27T00:16:16.926Z,3.30
2023-01-27T00:21:37.103Z,4.20
2023-01-27T00:26:39.670Z,3.17
2023-01-27T00:32:01.704Z,3.23
2023-01-27T00:37:06.179Z,2.90
2023-01-27T00:42:09.136Z,3.40
2023-01-27T00:47:13.466Z,3.50
2023-01-27T00:52:16.259Z,2.40
2023-01-27T00:57:19.157Z,3.90
2023-01-27T01:02:23.059Z,2.73
2023-01-27T01:07:26.357Z,3.17
2023-01-27T01:12:28.952Z,3.30
2023-01-27T01:17:33.089Z,3.10
2023-01-27T01:22:35.894Z,3.13
2023-01-27T01:27:38.535Z,4.30
2023-01-27T01:32:42.899Z,3.37
2023-01-27T01:37:45.489Z,3.50
2023-01-27T01:42:55.523Z,3.60
2023-01-27T01:48:00.961Z,3.63
2023-01-27T01:53:05.656Z,4.00
2023-01-27T01:58:11.084Z,4.80
2023-01-27T02:03:15.749Z,5.43
2023-01-27T02:08:23.910Z,6.57
2023-01-27T02:13:26.485Z,5.83
2023-01-27T02:18:30.770Z,7.60
2023-01-27T02:23:47.840Z,8.43
2023-01-27T02:28:57.124Z,8.90
2023-01-27T02:34:04.529Z,8.80
2023-01-27T02:39:10.387Z,10.50
2023-01-27T02:44:14.448Z,9.03
2023-01-27T02:49:17.097Z,10.00
2023-01-27T02:54:20.459Z,8.80
2023-01-27T02:59:24.368Z,9.30
2023-01-27T03:04:27.004Z,9.07
2023-01-27T03:09:29.955Z,9.10
2023-01-27T03:14:51.200Z,8.97
2023-01-27T03:19:53.930Z,8.40
2023-01-27T03:24:56.888Z,8.90
2023-01-27T03:30:01.173Z,7.93
2023-01-27T03:35:07.654Z,7.60
2023-01-27T03:40:30.640Z,7.30
2023-01-27T03:45:52.243Z,7.30
2023-01-27T03:50:58.290Z,7.80
2023-01-27T03:56:00.859Z,8.40
2023-01-27T04:01:06.377Z,8.43
2023-01-27T04:06:29.463Z,8.57
2023-01-27T04:11:49.892Z,9.77
2023-01-27T04:16:55.766Z,8.63
2023-01-27T04:21:59.555Z,9.77
2023-01-27T04:27:03.972Z,11.90
2023-01-27T04:32:10.365Z,11.00
2023-01-27T04:37:13.011Z,37.83
2023-01-27T04:42:16.147Z,12.30
2023-01-27T04:47:20.083Z,11.10
2023-01-27T04:52:22.607Z,9.80
2023-01-27T04:57:25.627Z,12.33
2023-01-27T05:02:29.515Z,9.77
2023-01-27T05:07:32.350Z,10.93
2023-01-27T05:12:35.402Z,11.87
2023-01-27T05:17:39.294Z,11.93
2023-01-27T05:22:42.393Z,11.90
2023-01-27T05:27:44.929Z,12.50
2023-01-27T05:32:49.182Z,12.50
2023-01-27T05:37:51.730Z,10.63
2023-01-27T05:42:54.538Z,11.10
2023-01-27T05:47:58.826Z,10.87
2023-01-27T05:53:01.398Z,9.60
2023-01-27T05:58:03.956Z,9.63
2023-01-27T06:03:07.913Z,9.53
2023-01-27T06:08:10.533Z,10.27
2023-01-27T06:13:13.164Z,9.70
2023-01-27T06:18:18.543Z,12.47
2023-01-27T06:23:21.103Z,10.53
2023-01-27T06:28:29.169Z,9.30
2023-01-27T06:33:33.553Z,18.23
2023-01-27T06:38:36.819Z,10.07
2023-01-27T06:43:41.462Z,9.37
2023-01-27T06:48:45.379Z,8.60
2023-01-27T06:53:48.304Z,11.50
2023-01-27T06:58:51.264Z,10.10
2023-01-27T07:03:55.176Z,10.13
2023-01-27T07:08:57.719Z,9.80
2023-01-27T07:14:00.269Z,9.47
2023-01-27T07:19:04.185Z,9.10
2023-01-27T07:24:07.392Z,10.30
2023-01-27T07:29:09.990Z,9.93
2023-01-27T07:34:13.979Z,10.63
2023-01-27T07:39:17.000Z,8.87
2023-01-27T07:44:21.466Z,9.33
2023-01-27T07:49:27.458Z,9.70
2023-01-27T07:54:30.491Z,9.60
2023-01-27T07:59:33.131Z,9.10
2023-01-27T08:04:50.860Z,8.70
2023-01-27T08:09:57.126Z,9.17
2023-01-27T08:14:59.743Z,13.10
2023-01-27T08:20:04.888Z,9.20
2023-01-27T08:25:08.502Z,19.23
2023-01-27T08:30:12.503Z,9.27
2023-01-27T08:35:16.772Z,8.63
2023-01-27T08:40:19.603Z,7.27
2023-01-27T08:45:22.143Z,7.90
2023-01-27T08:50:26.124Z,7.60
2023-01-27T08:55:30.046Z,7.43
2023-01-27T09:00:32.788Z,7.37
2023-01-27T09:05:37.657Z,8.50
2023-01-27T09:10:41.687Z,7.03
2023-01-27T09:15:46.128Z,6.30
2023-01-27T09:20:50.014Z,6.50
2023-01-27T09:25:52.552Z,6.87
2023-01-27T09:30:59.884Z,5.90
2023-01-27T09:36:09.672Z,6.27
2023-01-27T09:41:30.395Z,6.23
2023-01-27T09:46:51.431Z,8.60
2023-01-27T09:52:09.917Z,5.90
2023-01-27T09:57:19.322Z,6.70
2023-01-27T10:02:42.698Z,6.00
2023-01-27T10:08:08.807Z,6.13
2023-01-27T10:13:24.453Z,5.67
2023-01-27T10:18:44.993Z,6.43
2023-01-27T10:24:01.985Z,7.10
2023-01-27T10:29:11.526Z,4.93
2023-01-27T10:34:34.118Z,5.70
2023-01-27T10:39:49.984Z,6.73
2023-01-27T10:45:12.197Z,5.70
2023-01-27T10:50:17.816Z,6.23
2023-01-27T10:55:25.598Z,5.13
2023-01-27T11:01:12.974Z,5.67
2023-01-27T11:06:02.178Z,6.83
2023-01-27T11:11:28.820Z,6.00
2023-01-27T11:16:50.930Z,6.10
2023-01-27T11:22:06.785Z,6.30
2023-01-27T11:27:21.205Z,5.80
2023-01-27T11:32:36.508Z,6.10
2023-01-27T11:37:41.295Z,5.73
2023-01-27T11:42:45.854Z,5.50
2023-01-27T11:47:51.883Z,6.00
2023-01-27T11:53:01.343Z,5.60
2023-01-27T11:58:14.692Z,4.70
2023-01-27T12:03:23.712Z,5.30
2023-01-27T12:08:44.641Z,4.80
2023-01-27T12:13:56.931Z,4.40
2023-01-27T12:19:04.172Z,4.30
2023-01-27T12:24:18.459Z,4.60
2023-01-27T12:29:27.240Z,3.77
2023-01-27T12:34:34.354Z,3.80
2023-01-27T12:39:46.625Z,3.80
2023-01-27T12:44:51.008Z,3.53
2023-01-27T12:50:21.716Z,4.20
2023-01-27T12:55:32.401Z,3.57
2023-01-27T13:00:37.718Z,3.47
2023-01-27T13:05:43.207Z,3.80
2023-01-27T13:10:54.244Z,3.50
2023-01-27T13:16:06.693Z,3.40
2023-01-27T13:21:15.131Z,3.30
2023-01-27T13:26:21.102Z,2.80
2023-01-27T13:31:36.595Z,3.07
2023-01-27T13:36:45.416Z,2.77
2023-01-27T13:41:52.600Z,2.80
2023-01-27T13:47:02.061Z,2.50
2023-01-27T13:52:06.707Z,2.40
2023-01-27T13:57:28.416Z,2.97
2023-01-27T14:03:04.352Z,2.43
2023-01-27T14:08:21.602Z,2.10
2023-01-27T14:13:36.988Z,2.47
2023-01-27T14:18:44.513Z,3.23
2023-01-27T14:23:56.258Z,2.07
2023-01-27T14:29:19.028Z,2.20
2023-01-27T14:34:36.012Z,2.00
2023-01-27T14:39:47.072Z,1.90
2023-01-27T14:45:04.951Z,1.60
2023-01-27T14:50:26.723Z,2.03
2023-01-27T14:55:35.882Z,1.57
2023-01-27T15:00:49.831Z,1.67
2023-01-27T15:06:02.058Z,4.87
2023-01-27T15:11:22.972Z,1.60
2023-01-27T15:16:38.998Z,2.20
2023-01-27T15:22:04.665Z,1.63
2023-01-27T15:27:09.719Z,1.40
2023-01-27T15:32:25.868Z,1.63
2023-01-27T15:37:30.257Z,1.73
2023-01-27T15:42:52.372Z,9.20
2023-01-27T15:48:00.224Z,2.40
2023-01-27T15:53:12.053Z,1.80
2023-01-27T15:58:24.630Z,1.50
2023-01-27T16:03:29.914Z,1.90
2023-01-27T16:08:40.942Z,4.63
2023-01-27T16:13:43.757Z,1.80
2023-01-27T16:18:51.880Z,12.50
2023-01-27T16:23:59.345Z,2.27
2023-01-27T16:29:19.999Z,1.47
2023-01-27T16:34:26.936Z,1.60
2023-01-27T16:39:38.528Z,1.70
2023-01-27T16:44:44.381Z,7.37
2023-01-27T16:49:49.348Z,4.17
2023-01-27T16:54:55.521Z,2.20
2023-01-27T17:00:00.385Z,2.13
2023-01-27T17:05:08.100Z,1.60
2023-01-27T17:10:29.098Z,2.13
2023-01-27T17:15:38.978Z,2.07
2023-01-27T17:20:46.901Z,5.03
2023-01-27T17:25:51.491Z,1.80
2023-01-27T17:31:06.121Z,1.93
2023-01-27T17:36:12.038Z,2.37
2023-01-27T17:41:33.387Z,2.30
2023-01-27T17:46:36.265Z,4.03
2023-01-27T17:51:42.254Z,2.50
2023-01-27T17:56:46.227Z,2.43
2023-01-27T18:01:51.897Z,1.93
2023-01-27T18:06:55.437Z,15.23
2023-01-27T18:12:01.247Z,2.57
2023-01-27T18:17:05.724Z,13.00
2023-01-27T18:22:16.207Z,2.50
2023-01-27T18:27:29.809Z,2.67
2023-01-27T18:32:40.090Z,2.83
2023-01-27T18:37:52.875Z,2.60
2023-01-27T18:42:58.423Z,2.50
2023-01-27T18:48:03.655Z,2.97
2023-01-27T18:53:13.719Z,2.57
2023-01-27T18:58:17.903Z,2.70
2023-01-27T19:03:24.588Z,4.13
2023-01-27T19:08:27.789Z,2.43
2023-01-27T19:13:31.821Z,7.47
2023-01-27T19:18:38.245Z,2.30
2023-01-27T19:23:44.303Z,2.23
2023-01-27T19:28:51.715Z,2.10
2023-01-27T19:33:55.589Z,3.50
2023-01-27T19:39:10.389Z,2.40
2023-01-27T19:44:14.805Z,1.80
2023-01-27T19:49:19.511Z,2.60
2023-01-27T19:54:22.820Z,2.73
2023-01-27T19:59:28.298Z,2.50
2023-01-27T20:04:31.414Z,3.77
2023-01-27T20:09:34.921Z,2.50
2023-01-27T20:14:39.025Z,3.87
2023-01-27T20:19:42.262Z,3.10
2023-01-27T20:24:45.073Z,3.20
2023-01-27T20:29:49.136Z,4.83
2023-01-27T20:34:52.217Z,3.73
2023-01-27T20:39:54.772Z,4.60
2023-01-27T20:44:58.980Z,10.83
2023-01-27T20:50:01.578Z,4.90
2023-01-27T20:55:04.863Z,5.73
2023-01-27T21:00:12.012Z,4.73
2023-01-27T21:05:15.961Z,4.37
2023-01-27T21:10:20.205Z,4.90
2023-01-27T21:15:24.548Z,4.47
2023-01-27T21:20:27.271Z,4.57
2023-01-27T21:25:30.310Z,6.33
2023-01-27T21:30:34.332Z,5.00
2023-01-27T21:35:37.115Z,5.20
2023-01-27T21:40:40.268Z,5.40
2023-01-27T21:45:44.227Z,7.77
2023-01-27T21:50:51.843Z,5.63
2023-01-27T21:55:54.406Z,6.00
2023-01-27T22:00:58.363Z,6.17
2023-01-27T22:06:05.157Z,6.40
2023-01-27T22:11:12.465Z,5.10
2023-01-27T22:16:16.798Z,5.40
2023-01-27T22:21:19.344Z,6.23
2023-01-27T22:26:21.892Z,5.80
2023-01-27T22:31:26.217Z,8.97
2023-01-27T22:36:28.782Z,5.23
2023-01-27T22:41:32.170Z,6.70
2023-01-27T22:46:36.154Z,4.40
2023-01-27T22:51:39.155Z,4.90
2023-01-27T22:56:43.050Z,4.70
2023-01-27T23:01:47.156Z,4.47
2023-01-27T23:06:49.903Z,4.70
2023-01-27T23:11:52.477Z,4.90
2023-01-27T23:16:58.486Z,4.47
2023-01-27T23:22:01.192Z,4.27
2023-01-27T23:27:03.957Z,4.83
2023-01-27T23:32:08.514Z,4.70
2023-01-27T23:37:11.124Z,4.20
2023-01-27T23:42:13.658Z,4.77
2023-01-27T23:47:17.888Z,4.33
2023-01-27T23:52:20.544Z,4.20
2023-01-27T23:57:23.094Z,4.50
